createdAt,value
2023-05-14T00:00:12.374Z,92.7319
2023-05-14T00:01:13.148Z,93.0977
2023-05-14T00:02:13.849Z,93.2724
2023-05-14T00:03:16.053Z,92.5757
2023-05-14T00:04:16.231Z,93.1241
2023-05-14T00:05:16.911Z,93.6477
2023-05-14T00:06:16.933Z,93.8361
2023-05-14T00:07:17.592Z,94.0208
2023-05-14T00:08:18.297Z,94.1382
2023-05-14T00:10:18.542Z,93.3958
2023-05-14T00:11:18.551Z,93.8941
2023-05-14T00:12:18.603Z,94.3134
2023-05-14T00:13:18.634Z,94.4894
2023-05-14T00:15:19.474Z,94.2210
2023-05-14T00:16:19.558Z,93.9807
2023-05-14T00:18:20.520Z,94.2022
2023-05-14T00:19:41.551Z,94.1956
2023-05-14T00:20:23.020Z,94.1481
2023-05-14T00:21:23.943Z,94.2067
2023-05-14T00:22:24.582Z,94.3047
2023-05-14T00:23:24.636Z,94.3959
2023-05-14T00:24:25.314Z,94.2132
2023-05-14T00:25:25.372Z,94.1697
2023-05-14T00:26:25.401Z,94.2275
2023-05-14T00:27:26.033Z,94.2812
2023-05-14T00:28:26.078Z,94.3826
2023-05-14T00:29:26.121Z,94.5290
2023-05-14T00:30:26.190Z,94.7087
2023-05-14T00:31:26.883Z,94.7544
2023-05-14T00:32:26.914Z,94.6025
2023-05-14T00:33:27.767Z,93.9280
2023-05-14T00:34:28.450Z,94.1662
2023-05-14T00:35:28.484Z,94.3284
2023-05-14T00:36:29.073Z,94.5306
2023-05-14T00:37:30.061Z,94.6888
2023-05-14T00:38:30.090Z,94.0164
2023-05-14T00:39:30.891Z,93.9588
2023-05-14T00:40:31.988Z,93.8532
2023-05-14T00:41:32.053Z,93.6534
2023-05-14T00:42:32.697Z,93.9497
2023-05-14T00:43:33.650Z,94.0946
2023-05-14T00:45:36.901Z,94.5098
2023-05-14T00:46:37.883Z,94.4477
2023-05-14T00:47:37.947Z,94.5004
2023-05-14T00:48:38.767Z,94.5437
2023-05-14T00:49:38.742Z,94.5141
2023-05-14T00:50:39.472Z,94.7336
2023-05-14T00:51:40.612Z,94.5999
2023-05-14T00:52:41.344Z,94.6443
2023-05-14T00:53:41.404Z,94.7268
2023-05-14T00:54:41.430Z,94.7912
2023-05-14T00:55:41.495Z,94.1794
2023-05-14T00:56:42.077Z,94.1722
2023-05-14T00:57:43.029Z,94.2762
2023-05-14T00:58:43.061Z,94.2432
2023-05-14T00:59:43.138Z,93.9692
2023-05-14T01:00:43.267Z,93.5402
2023-05-14T01:01:43.957Z,93.3780
2023-05-14T01:02:44.065Z,93.5022
2023-05-14T01:03:44.245Z,93.4917
2023-05-14T01:04:44.968Z,93.4421
2023-05-14T01:05:44.985Z,93.4414
2023-05-14T01:06:45.664Z,93.5113
2023-05-14T01:07:46.334Z,93.4660
2023-05-14T01:08:47.057Z,93.3382
2023-05-14T01:09:47.101Z,93.3484
2023-05-14T01:10:47.155Z,93.1508
2023-05-14T01:11:47.864Z,93.1638
2023-05-14T01:12:47.908Z,93.6672
2023-05-14T01:13:48.993Z,93.7135
2023-05-14T01:14:49.930Z,93.9438
2023-05-14T01:15:49.954Z,94.2358
2023-05-14T01:16:50.081Z,93.9926
2023-05-14T01:17:50.158Z,93.5645
2023-05-14T01:18:50.266Z,93.7404
2023-05-14T01:19:50.341Z,93.2585
2023-05-14T01:20:50.384Z,92.8151
2023-05-14T01:21:50.427Z,92.6592
2023-05-14T01:22:50.452Z,92.7992
2023-05-14T01:23:50.523Z,92.6680
2023-05-14T01:24:50.558Z,92.5574
2023-05-14T01:25:50.578Z,92.8269
2023-05-14T01:26:50.626Z,92.9278
2023-05-14T01:27:51.006Z,93.0159
2023-05-14T01:28:51.104Z,93.0948
2023-05-14T01:29:51.114Z,93.4294
2023-05-14T01:30:51.774Z,93.7089
2023-05-14T01:31:51.833Z,93.7028
2023-05-14T01:32:52.482Z,93.6809
2023-05-14T01:33:53.307Z,93.6403
2023-05-14T01:34:53.612Z,93.2881
2023-05-14T01:35:54.356Z,93.2410
2023-05-14T01:36:54.699Z,93.2290
2023-05-14T01:37:54.739Z,93.1122
2023-05-14T01:38:55.926Z,93.0498
2023-05-14T01:39:55.998Z,93.0155
2023-05-14T01:40:56.426Z,93.3061
2023-05-14T01:41:57.187Z,93.5678
2023-05-14T01:42:57.253Z,93.7450
2023-05-14T01:43:58.066Z,94.1176
2023-05-14T01:44:58.764Z,94.1604
2023-05-14T01:45:58.816Z,93.8607
2023-05-14T01:46:59.492Z,93.4965
2023-05-14T01:48:00.796Z,93.4504
2023-05-14T01:49:00.856Z,93.5787
2023-05-14T01:50:01.491Z,93.8596
2023-05-14T01:51:01.692Z,93.9951
2023-05-14T01:53:02.982Z,93.5717
2023-05-14T01:54:03.008Z,93.6916
2023-05-14T01:55:03.691Z,94.0478
2023-05-14T01:56:04.302Z,93.9431
2023-05-14T01:57:05.063Z,93.7037
2023-05-14T01:58:06.556Z,93.3646
2023-05-14T01:59:06.597Z,93.5250
2023-05-14T02:00:07.258Z,93.9498
2023-05-14T02:01:08.603Z,94.0571
2023-05-14T02:07:13.546Z,94.8063
2023-05-14T02:08:13.583Z,94.9639
2023-05-14T02:09:13.612Z,95.1517
2023-05-14T02:10:14.243Z,95.0981
2023-05-14T02:11:14.280Z,94.7997
2023-05-14T02:13:15.142Z,94.1694
2023-05-14T02:14:16.276Z,94.0427
2023-05-14T02:19:23.936Z,94.3095
2023-05-14T02:20:24.624Z,94.4533
2023-05-14T02:21:25.189Z,94.7068
2023-05-14T02:22:26.039Z,94.1925
2023-05-14T02:23:37.983Z,94.0414
2023-05-14T02:24:26.703Z,94.2999
2023-05-14T02:25:27.548Z,94.2829
2023-05-14T02:26:28.218Z,94.3569
2023-05-14T02:27:28.671Z,94.3248
2023-05-14T02:28:29.322Z,94.4873
2023-05-14T02:29:29.424Z,94.8051
2023-05-14T02:30:29.817Z,94.6199
2023-05-14T02:31:30.898Z,94.3347
2023-05-14T02:32:31.250Z,94.2806
2023-05-14T02:33:32.452Z,94.2034
2023-05-14T02:34:33.484Z,93.9491
2023-05-14T02:35:33.559Z,93.8921
2023-05-14T02:36:34.404Z,93.6204
2023-05-14T02:37:35.630Z,93.7683
2023-05-14T02:38:35.692Z,94.0321
2023-05-14T02:39:36.361Z,94.1388
2023-05-14T02:40:36.504Z,94.2297
2023-05-14T02:41:37.933Z,94.3569
2023-05-14T02:42:38.856Z,94.7741
2023-05-14T02:43:38.911Z,95.0677
2023-05-14T02:44:40.416Z,95.3724
2023-05-14T02:45:41.169Z,95.5427
2023-05-14T02:46:41.616Z,95.5958
2023-05-14T02:47:42.607Z,95.6834
2023-05-14T02:48:43.785Z,95.6753
2023-05-14T02:49:43.835Z,95.7543
2023-05-14T02:50:44.703Z,95.7609
2023-05-14T02:51:44.968Z,95.8120
2023-05-14T02:52:45.109Z,95.8446
2023-05-14T02:53:45.344Z,95.8639
2023-05-14T02:54:46.420Z,95.8058
2023-05-14T02:55:46.513Z,95.7802
2023-05-14T02:56:47.375Z,95.8197
2023-05-14T02:57:47.633Z,95.9241
2023-05-14T02:59:48.268Z,95.7561
2023-05-14T03:00:48.854Z,95.7266
2023-05-14T03:01:50.400Z,95.7614
2023-05-14T03:02:51.124Z,95.6656
2023-05-14T03:03:51.883Z,95.6911
2023-05-14T03:04:52.717Z,95.8850
2023-05-14T03:05:52.927Z,95.9401
2023-05-14T03:06:53.575Z,95.8921
2023-05-14T03:07:54.526Z,95.9457
2023-05-14T03:08:54.754Z,95.9722
2023-05-14T03:09:55.512Z,95.9054
2023-05-14T03:10:56.327Z,95.7252
2023-05-14T03:11:56.779Z,95.7202
2023-05-14T03:12:57.638Z,95.7373
2023-05-14T03:13:57.693Z,95.6634
2023-05-14T03:14:58.998Z,95.5446
2023-05-14T03:15:59.939Z,95.3278
2023-05-14T03:17:00.841Z,95.3943
2023-05-14T03:18:01.123Z,95.5681
2023-05-14T03:19:01.322Z,95.5990
2023-05-14T03:20:01.968Z,95.6290
2023-05-14T03:21:02.824Z,95.5238
2023-05-14T03:22:02.882Z,95.5481
2023-05-14T03:23:03.139Z,95.7348
2023-05-14T03:24:03.375Z,95.8440
2023-05-14T03:25:04.249Z,95.9708
2023-05-14T03:26:04.576Z,96.1001
2023-05-14T03:27:04.638Z,96.2094
2023-05-14T03:28:05.461Z,96.3141
2023-05-14T03:29:05.516Z,96.3523
2023-05-14T03:30:06.770Z,96.4082
2023-05-14T03:31:07.569Z,96.4754
2023-05-14T03:32:08.279Z,96.5279
2023-05-14T03:33:09.108Z,96.6209
2023-05-14T03:34:09.205Z,96.7014
2023-05-14T03:35:10.782Z,96.7557
2023-05-14T03:36:11.754Z,96.8474
2023-05-14T03:38:13.236Z,96.9464
2023-05-14T03:39:13.713Z,96.9976
2023-05-14T03:40:14.969Z,97.0318
2023-05-14T03:41:16.007Z,97.0857
2023-05-14T03:42:16.889Z,97.1298
2023-05-14T03:43:17.005Z,97.1771
2023-05-14T03:44:17.965Z,97.1724
2023-05-14T03:45:19.574Z,97.1533
2023-05-14T03:46:21.521Z,97.1498
2023-05-14T03:48:25.359Z,97.2258
2023-05-14T03:49:25.491Z,97.2652
2023-05-14T03:50:26.347Z,97.3014
2023-05-14T03:51:27.113Z,97.3184
2023-05-14T03:52:27.155Z,97.3630
2023-05-14T03:53:27.887Z,97.3906
2023-05-14T03:54:28.499Z,97.4317
2023-05-14T03:55:28.603Z,97.4662
2023-05-14T03:56:29.768Z,97.4899
2023-05-14T03:57:30.411Z,97.5198
2023-05-14T03:58:30.501Z,97.5501
2023-05-14T03:59:31.841Z,97.5751
2023-05-14T04:00:32.932Z,97.5816
2023-05-14T04:01:32.999Z,97.5342
2023-05-14T04:02:33.805Z,97.5166
2023-05-14T04:03:34.094Z,97.4752
2023-05-14T04:04:35.447Z,97.4757
2023-05-14T04:05:35.554Z,97.4874
2023-05-14T04:06:35.624Z,97.4801
2023-05-14T04:07:36.405Z,97.4170
2023-05-14T04:08:37.237Z,97.3381
2023-05-14T04:09:37.961Z,97.2931
2023-05-14T04:10:38.071Z,97.2111
2023-05-14T04:11:38.145Z,97.1303
2023-05-14T04:12:38.906Z,97.0641
2023-05-14T04:13:39.461Z,97.0241
2023-05-14T04:14:39.553Z,97.0371
2023-05-14T04:15:40.558Z,97.0449
2023-05-14T04:16:40.750Z,96.9007
2023-05-14T04:17:41.249Z,96.7152
2023-05-14T04:18:41.984Z,96.6588
2023-05-14T04:19:42.738Z,96.5939
2023-05-14T04:25:47.636Z,95.5535
2023-05-14T04:26:48.467Z,95.5967
2023-05-14T04:27:49.145Z,95.5148
2023-05-14T04:28:49.227Z,95.2365
2023-05-14T04:29:49.953Z,95.1261
2023-05-14T04:30:50.850Z,94.8202
2023-05-14T04:31:50.962Z,94.2334
2023-05-14T04:32:51.697Z,94.2729
2023-05-14T04:33:51.778Z,94.3259
2023-05-14T04:34:52.458Z,94.5188
2023-05-14T04:35:52.596Z,94.7315
2023-05-14T04:36:53.346Z,94.7098
2023-05-14T04:37:54.193Z,94.2382
2023-05-14T04:38:54.843Z,94.2406
2023-05-14T04:39:55.730Z,94.4665
2023-05-14T04:40:56.475Z,94.5792
2023-05-14T04:41:56.571Z,94.4217
2023-05-14T04:42:57.249Z,94.3780
2023-05-14T04:43:57.932Z,94.1638
2023-05-14T04:44:57.994Z,93.8733
2023-05-14T04:45:58.962Z,93.7729
2023-05-14T04:46:59.714Z,93.2957
2023-05-14T04:47:59.836Z,93.4641
2023-05-14T04:49:00.611Z,93.5024
2023-05-14T04:50:00.689Z,93.0283
2023-05-14T04:57:07.497Z,93.2197
2023-05-14T04:58:07.625Z,93.2193
2023-05-14T04:59:07.959Z,93.0440
2023-05-14T05:00:08.060Z,92.5849
2023-05-14T05:01:08.251Z,92.1339
2023-05-14T05:02:08.322Z,92.6272
2023-05-14T05:03:09.086Z,92.9925
2023-05-14T05:04:09.358Z,93.1911
2023-05-14T05:05:09.941Z,92.6811
2023-05-14T05:06:10.905Z,91.8368
2023-05-14T05:07:10.978Z,91.8341
2023-05-14T05:08:11.745Z,91.2501
2023-05-14T05:09:12.523Z,90.6706
2023-05-14T05:11:16.133Z,90.6992
2023-05-14T05:12:16.897Z,91.3187
2023-05-14T05:13:18.267Z,90.3975
2023-05-14T05:14:18.356Z,89.8892
2023-05-14T05:15:18.419Z,90.5079
2023-05-14T05:16:18.694Z,91.0269
2023-05-14T05:17:18.789Z,91.4346
2023-05-14T05:18:18.878Z,90.5597
2023-05-14T05:19:20.844Z,90.0472
2023-05-14T05:20:19.797Z,90.1755
2023-05-14T05:21:20.363Z,90.2022
2023-05-14T05:22:20.420Z,90.7937
2023-05-14T05:23:21.645Z,89.6783
2023-05-14T05:24:22.382Z,89.7490
2023-05-14T05:25:23.776Z,90.4345
2023-05-14T05:26:23.842Z,90.0109
2023-05-14T05:27:24.542Z,89.2466
2023-05-14T05:28:24.709Z,89.2796
2023-05-14T05:29:25.373Z,88.8801
2023-05-14T05:30:26.254Z,88.8025
2023-05-14T05:31:26.457Z,89.5927
2023-05-14T05:32:27.234Z,89.1082
2023-05-14T05:33:27.286Z,88.5150
2023-05-14T05:34:28.075Z,88.6850
2023-05-14T05:35:28.973Z,88.3174
2023-05-14T05:36:29.079Z,88.3886
2023-05-14T05:37:30.087Z,88.7209
2023-05-14T05:38:30.189Z,88.8559
2023-05-14T05:39:30.266Z,88.6768
2023-05-14T05:40:30.402Z,88.8948
2023-05-14T05:41:30.460Z,89.3809
2023-05-14T05:42:30.866Z,89.3466
2023-05-14T05:43:31.000Z,88.2567
2023-05-14T05:44:31.107Z,88.2112
2023-05-14T05:45:31.793Z,88.2408
2023-05-14T05:46:31.950Z,89.3935
2023-05-14T05:47:32.654Z,88.9826
2023-05-14T05:48:33.309Z,88.5364
2023-05-14T05:49:33.599Z,87.9469
2023-05-14T05:50:34.329Z,87.3159
2023-05-14T05:51:35.070Z,87.1945
2023-05-14T05:52:35.777Z,87.2812
2023-05-14T05:53:35.865Z,86.8661
2023-05-14T05:54:36.627Z,86.4415
2023-05-14T05:55:37.468Z,86.4632
2023-05-14T05:56:37.553Z,86.0879
2023-05-14T05:57:37.641Z,85.6697
2023-05-14T05:58:37.980Z,85.3793
2023-05-14T05:59:38.090Z,85.5353
2023-05-14T06:00:39.076Z,85.7891
2023-05-14T06:01:40.286Z,85.6265
2023-05-14T06:03:45.268Z,87.4871
2023-05-14T06:04:44.990Z,86.8845
2023-05-14T06:05:45.210Z,87.0612
2023-05-14T06:06:45.958Z,86.6046
2023-05-14T06:07:46.692Z,87.1968
2023-05-14T06:09:46.895Z,87.9220
2023-05-14T06:10:47.634Z,88.8977
2023-05-14T06:27:15.538Z,90.2233
2023-05-14T06:28:16.231Z,90.0188
2023-05-14T06:29:17.034Z,90.3440
2023-05-14T06:31:20.477Z,89.9414
2023-05-14T06:32:21.403Z,89.8368
2023-05-14T06:33:21.586Z,90.2546
2023-05-14T06:34:22.282Z,89.9660
2023-05-14T06:35:23.002Z,89.7847
2023-05-14T06:38:26.354Z,89.2600
2023-05-14T06:39:27.021Z,89.1609
2023-05-14T06:40:27.786Z,88.9794
2023-05-14T06:41:27.848Z,88.9780
2023-05-14T06:42:27.941Z,89.5675
2023-05-14T06:43:45.739Z,89.7384
2023-05-14T06:44:29.610Z,89.6260
2023-05-14T06:45:33.189Z,89.4336
2023-05-14T06:46:33.415Z,89.6765
2023-05-14T06:47:34.267Z,89.4256
2023-05-14T06:48:35.174Z,89.5758
2023-05-14T06:50:35.806Z,89.2561
2023-05-14T06:52:37.487Z,88.9242
2023-05-14T07:03:11.796Z,88.9675
2023-05-14T07:03:53.650Z,89.3719
2023-05-14T07:04:54.187Z,89.0855
2023-05-14T07:05:54.382Z,89.2917
2023-05-14T07:06:55.078Z,89.4815
2023-05-14T07:07:55.220Z,90.4889
2023-05-14T07:08:55.897Z,91.0522
2023-05-14T07:09:56.678Z,91.0993
2023-05-14T07:10:56.759Z,90.8369
2023-05-14T07:11:56.840Z,90.5662
2023-05-14T07:12:57.514Z,90.7343
2023-05-14T07:13:58.249Z,90.8766
2023-05-14T07:14:58.367Z,90.9790
2023-05-14T07:15:58.466Z,90.8883
2023-05-14T07:16:58.639Z,91.0094
2023-05-14T07:17:59.423Z,90.6722
2023-05-14T07:18:59.557Z,91.2427
2023-05-14T07:20:00.294Z,91.2506
2023-05-14T07:21:00.427Z,91.7596
2023-05-14T07:22:01.155Z,91.9220
2023-05-14T07:23:01.233Z,92.1702
2023-05-14T07:24:01.315Z,92.2073
2023-05-14T07:25:02.123Z,92.1691
2023-05-14T07:26:02.209Z,91.4715
2023-05-14T07:27:03.009Z,91.1887
2023-05-14T07:28:03.739Z,91.0384
2023-05-14T07:29:04.594Z,90.5889
2023-05-14T07:31:05.947Z,88.7806
2023-05-14T07:32:06.034Z,88.6092
2023-05-14T07:33:06.813Z,88.4380
2023-05-14T07:34:07.707Z,88.1459
2023-05-14T07:35:07.830Z,87.6907
2023-05-14T07:36:08.546Z,87.2709
2023-05-14T07:37:08.626Z,85.7631
2023-05-14T07:38:09.422Z,86.6681
2023-05-14T07:39:09.512Z,86.6215
2023-05-14T07:40:10.290Z,87.6118
2023-05-14T07:41:10.409Z,87.9067
2023-05-14T07:42:10.448Z,88.3721
2023-05-14T07:43:10.544Z,87.9438
2023-05-14T07:44:10.640Z,86.9492
2023-05-14T07:45:10.932Z,86.7413
2023-05-14T07:46:11.105Z,84.9071
2023-05-14T07:47:11.704Z,83.5304
2023-05-14T07:48:12.186Z,82.0070
2023-05-14T07:49:13.092Z,82.2874
2023-05-14T07:50:14.341Z,81.3382
2023-05-14T07:51:16.186Z,81.3832
2023-05-14T07:52:23.281Z,81.0695
2023-05-14T08:00:28.678Z,78.1003
2023-05-14T08:01:28.870Z,80.1905
2023-05-14T08:02:29.016Z,82.3377
2023-05-14T08:03:42.442Z,82.7396
2023-05-14T08:04:31.708Z,83.7942
2023-05-14T08:05:31.786Z,82.3730
2023-05-14T08:06:32.517Z,79.5715
2023-05-14T08:07:35.159Z,78.6274
2023-05-14T08:08:35.259Z,77.8840
2023-05-14T08:09:35.336Z,81.9828
2023-05-14T08:10:36.187Z,81.9097
2023-05-14T08:11:36.332Z,80.0266
2023-05-14T08:12:36.444Z,78.1446
2023-05-14T08:13:37.206Z,77.6850
2023-05-14T08:14:38.063Z,78.2146
2023-05-14T08:15:38.155Z,80.2091
2023-05-14T08:16:38.887Z,80.6111
2023-05-14T08:17:39.045Z,79.5981
2023-05-14T08:19:40.555Z,82.6554
2023-05-14T08:20:40.640Z,82.5934
2023-05-14T08:21:41.484Z,80.1997
2023-05-14T08:22:41.578Z,78.5800
2023-05-14T08:23:42.554Z,78.6331
2023-05-14T08:24:42.654Z,78.6080
2023-05-14T08:25:42.802Z,77.4857
2023-05-14T08:26:42.866Z,80.8191
2023-05-14T08:27:42.983Z,82.3676
2023-05-14T08:28:43.931Z,82.5460
2023-05-14T08:29:44.030Z,83.6789
2023-05-14T08:30:44.801Z,82.6266
2023-05-14T08:31:44.875Z,82.2626
2023-05-14T08:32:45.579Z,82.9884
2023-05-14T08:33:47.035Z,82.7690
2023-05-14T08:34:48.510Z,81.8327
2023-05-14T08:35:49.252Z,81.4555
2023-05-14T08:36:53.667Z,81.9507
2023-05-14T08:40:54.148Z,81.3999
2023-05-14T08:41:55.161Z,79.0449
2023-05-14T08:42:55.497Z,79.7514
2023-05-14T08:43:56.504Z,79.8358
2023-05-14T08:44:56.840Z,80.1466
2023-05-14T08:45:57.664Z,80.0347
2023-05-14T08:46:58.555Z,80.9583
2023-05-14T08:47:59.656Z,79.5652
2023-05-14T08:49:00.579Z,79.2249
2023-05-14T08:50:01.559Z,80.3542
2023-05-14T08:51:02.149Z,80.7976
2023-05-14T08:52:03.603Z,80.2756
2023-05-14T08:53:03.748Z,79.4612
2023-05-14T08:54:05.585Z,78.3300
2023-05-14T08:55:06.607Z,77.1165
2023-05-14T08:56:07.013Z,77.0216
2023-05-14T08:57:07.157Z,75.8267
2023-05-14T08:58:20.974Z,76.7836
2023-05-14T08:59:21.082Z,78.6554
2023-05-14T09:00:21.316Z,77.1312
2023-05-14T09:01:21.734Z,74.2178
2023-05-14T09:02:22.847Z,75.6777
2023-05-14T09:03:23.349Z,75.1815
2023-05-14T09:04:23.544Z,75.3156
2023-05-14T09:05:24.482Z,76.1021
2023-05-14T09:06:24.765Z,74.1826
2023-05-14T09:07:25.273Z,73.5384
2023-05-14T09:08:28.866Z,72.7217
2023-05-14T09:13:32.857Z,75.2372
2023-05-14T09:14:33.006Z,73.4287
2023-05-14T09:15:33.964Z,76.9390
2023-05-14T09:16:34.747Z,75.1932
2023-05-14T09:17:35.426Z,75.7772
2023-05-14T09:18:36.223Z,74.7102
2023-05-14T09:19:36.327Z,74.8371
2023-05-14T09:20:37.074Z,76.9379
2023-05-14T09:21:37.203Z,78.0989
2023-05-14T09:22:58.334Z,77.9303
2023-05-14T09:23:40.532Z,77.9289
2023-05-14T09:24:41.022Z,79.2017
2023-05-14T09:25:41.869Z,79.3282
2023-05-14T09:26:41.994Z,79.3073
2023-05-14T09:27:42.118Z,79.8865
2023-05-14T09:28:42.236Z,79.2612
2023-05-14T09:29:42.406Z,78.8556
2023-05-14T09:30:42.558Z,79.0981
2023-05-14T09:31:43.501Z,80.0692
2023-05-14T09:32:44.399Z,80.2833
2023-05-14T09:33:44.889Z,80.2437
2023-05-14T09:34:45.466Z,80.6042
2023-05-14T09:35:45.661Z,80.9412
2023-05-14T09:36:46.378Z,80.7578
2023-05-14T09:37:46.673Z,78.2747
2023-05-14T09:38:46.935Z,78.2831
2023-05-14T09:39:47.831Z,80.0042
2023-05-14T09:40:48.181Z,79.7942
2023-05-14T09:41:48.302Z,77.2754
2023-05-14T09:42:48.990Z,78.2761
2023-05-14T09:43:49.922Z,77.8469
2023-05-14T09:45:50.709Z,76.5181
2023-05-14T09:46:51.458Z,77.3546
2023-05-14T09:48:51.962Z,77.4969
2023-05-14T09:49:52.095Z,77.1074
2023-05-14T09:50:52.426Z,76.7892
2023-05-14T09:51:53.299Z,76.8482
2023-05-14T09:52:54.120Z,77.2851
2023-05-14T09:53:54.466Z,78.1110
2023-05-14T09:54:55.454Z,77.1984
2023-05-14T09:55:55.663Z,78.1573
2023-05-14T09:56:55.962Z,79.1141
2023-05-14T09:57:57.150Z,80.0475
2023-05-14T09:58:57.274Z,80.8511
2023-05-14T09:59:57.453Z,80.5397
2023-05-14T10:00:57.711Z,80.4042
2023-05-14T10:01:57.884Z,82.3004
2023-05-14T10:02:58.023Z,81.9150
2023-05-14T10:04:02.562Z,81.0258
2023-05-14T10:10:08.921Z,82.1667
2023-05-14T10:11:09.047Z,81.9204
2023-05-14T10:12:09.696Z,82.1347
2023-05-14T10:13:10.263Z,82.0847
2023-05-14T10:14:11.596Z,81.0257
2023-05-14T10:15:12.328Z,81.0186
2023-05-14T10:16:12.927Z,81.8624
2023-05-14T10:17:13.188Z,82.1815
2023-05-14T10:18:13.355Z,82.1114
2023-05-14T10:19:14.020Z,81.1885
2023-05-14T10:20:14.177Z,81.2956
2023-05-14T10:21:14.287Z,81.3479
2023-05-14T10:22:14.959Z,80.7433
2023-05-14T10:23:16.284Z,80.5642
2023-05-14T10:24:16.440Z,81.6110
2023-05-14T10:25:16.561Z,81.7049
2023-05-14T10:26:17.596Z,81.9903
2023-05-14T10:27:17.736Z,80.1555
2023-05-14T10:28:17.900Z,79.6644
2023-05-14T10:29:18.054Z,80.3407
2023-05-14T10:30:18.200Z,80.6303
2023-05-14T10:31:18.414Z,80.7277
2023-05-14T10:32:18.621Z,80.7712
2023-05-14T10:33:18.868Z,81.6436
2023-05-14T10:34:19.056Z,81.3183
2023-05-14T10:35:20.009Z,81.8165
2023-05-14T10:36:20.136Z,80.9161
2023-05-14T10:37:20.673Z,81.8475
2023-05-14T10:38:20.771Z,80.8207
2023-05-14T10:39:21.869Z,80.2182
2023-05-14T10:40:22.927Z,79.9662
2023-05-14T10:41:23.382Z,80.7566
2023-05-14T10:42:23.561Z,80.3799
2023-05-14T10:43:23.638Z,80.7521
2023-05-14T10:44:23.872Z,80.0604
2023-05-14T10:45:24.421Z,79.9250
2023-05-14T10:46:24.655Z,80.4552
2023-05-14T10:47:24.794Z,79.6474
2023-05-14T10:48:25.080Z,80.8366
2023-05-14T10:49:39.718Z,79.9082
2023-05-14T10:50:26.972Z,78.6270
2023-05-14T10:51:27.786Z,78.0919
2023-05-14T10:52:27.914Z,75.0461
2023-05-14T10:53:28.015Z,76.3852
2023-05-14T10:54:29.126Z,77.1840
2023-05-14T10:55:29.316Z,76.2685
2023-05-14T10:56:29.434Z,78.1700
2023-05-14T10:57:30.260Z,78.8981
2023-05-14T10:58:30.420Z,77.7920
2023-05-14T10:59:31.190Z,76.4709
2023-05-14T11:00:31.359Z,76.9633
2023-05-14T11:01:31.494Z,75.1252
2023-05-14T11:02:32.263Z,76.7363
2023-05-14T11:03:33.125Z,76.7481
2023-05-14T11:04:33.425Z,75.3463
2023-05-14T11:05:33.541Z,74.0818
2023-05-14T11:06:33.682Z,74.1354
2023-05-14T11:07:33.787Z,74.8312
2023-05-14T11:08:33.948Z,73.7715
2023-05-14T11:09:34.685Z,68.6418
2023-05-14T11:10:34.889Z,68.8159
2023-05-14T11:11:35.716Z,68.6230
2023-05-14T11:12:35.871Z,63.1400
2023-05-14T11:13:36.002Z,63.3980
2023-05-14T11:14:36.140Z,64.4915
2023-05-14T11:15:36.344Z,64.4122
2023-05-14T11:16:37.185Z,68.7811
2023-05-14T11:17:37.405Z,68.7719
2023-05-14T11:18:38.274Z,71.2808
2023-05-14T11:19:38.395Z,71.2863
2023-05-14T11:20:38.520Z,73.4865
2023-05-14T11:21:39.527Z,72.9273
2023-05-14T11:22:39.681Z,75.3704
2023-05-14T11:23:40.003Z,77.5129
2023-05-14T11:24:40.191Z,77.9635
2023-05-14T11:25:40.803Z,77.9670
2023-05-14T11:26:41.011Z,78.1154
2023-05-14T11:27:41.813Z,78.8030
2023-05-14T11:28:41.949Z,78.1882
2023-05-14T11:29:42.734Z,78.0758
2023-05-14T11:30:43.755Z,79.6689
2023-05-14T11:33:48.005Z,78.8897
2023-05-14T11:34:48.147Z,79.0314
2023-05-14T11:35:48.302Z,78.5233
2023-05-14T11:36:48.454Z,77.6555
2023-05-14T11:37:50.898Z,77.3333
2023-05-14T11:38:51.054Z,77.9999
2023-05-14T11:39:58.359Z,77.5973
2023-05-14T11:42:10.508Z,75.1982
2023-05-14T11:42:59.144Z,75.1992
2023-05-14T11:43:59.992Z,76.1294
2023-05-14T11:45:00.755Z,76.4601
2023-05-14T11:46:00.960Z,74.8875
2023-05-14T11:47:01.793Z,75.4453
2023-05-14T11:48:01.946Z,75.6623
2023-05-14T11:49:02.723Z,75.5160
2023-05-14T11:50:19.972Z,75.5347
2023-05-14T11:51:42.306Z,75.8953
2023-05-14T11:52:43.341Z,76.7568
2023-05-14T11:53:44.797Z,76.5014
2023-05-14T11:54:45.334Z,75.9449
2023-05-14T11:55:45.674Z,74.6718
2023-05-14T11:57:03.262Z,75.2044
2023-05-14T11:57:47.835Z,74.0982
2023-05-14T11:58:48.623Z,73.9379
2023-05-14T11:59:48.767Z,73.2978
2023-05-14T12:00:50.053Z,74.4430
2023-05-14T12:01:50.993Z,72.9804
2023-05-14T12:02:51.214Z,71.6649
2023-05-14T12:03:52.325Z,69.5054
2023-05-14T12:04:53.831Z,70.1217
2023-05-14T12:05:54.602Z,73.6330
2023-05-14T12:06:54.948Z,73.3841
2023-05-14T12:07:55.496Z,73.9743
2023-05-14T12:08:55.948Z,76.0825
2023-05-14T12:09:56.169Z,77.5082
2023-05-14T12:10:56.447Z,77.0352
2023-05-14T12:11:56.906Z,76.8608
2023-05-14T12:12:57.314Z,77.0340
2023-05-14T12:13:57.709Z,76.2915
2023-05-14T12:14:58.050Z,77.0176
2023-05-14T12:15:58.262Z,77.2952
2023-05-14T12:16:58.645Z,78.7492
2023-05-14T12:18:59.550Z,80.9436
2023-05-14T12:19:59.737Z,82.0051
2023-05-14T12:21:01.497Z,82.1550
2023-05-14T12:22:02.291Z,82.7749
2023-05-14T12:23:02.406Z,82.9360
2023-05-14T12:24:03.345Z,83.3299
2023-05-14T12:25:04.377Z,83.7505
2023-05-14T12:26:04.572Z,83.6513
2023-05-14T12:27:05.635Z,84.0672
2023-05-14T12:28:05.979Z,84.4430
2023-05-14T12:29:06.331Z,84.4853
2023-05-14T12:31:07.389Z,85.5141
2023-05-14T12:32:08.842Z,85.4679
2023-05-14T12:33:09.710Z,85.9811
2023-05-14T12:34:09.856Z,86.0433
2023-05-14T12:35:10.631Z,86.5042
2023-05-14T12:36:21.188Z,87.0210
2023-05-14T12:37:13.912Z,87.0073
2023-05-14T12:38:15.020Z,87.3209
2023-05-14T12:39:15.466Z,87.9425
2023-05-14T12:40:15.625Z,88.0002
2023-05-14T12:41:15.960Z,87.9339
2023-05-14T12:42:17.652Z,87.9753
2023-05-14T12:43:17.818Z,88.7581
2023-05-14T12:44:17.951Z,89.0492
2023-05-14T12:45:18.068Z,89.0544
2023-05-14T12:46:18.193Z,89.3176
2023-05-14T12:47:18.423Z,88.7253
2023-05-14T12:48:18.574Z,88.2003
2023-05-14T12:49:18.728Z,88.0113
2023-05-14T12:50:19.496Z,87.6806
2023-05-14T12:52:36.124Z,88.3479
2023-05-14T12:53:24.047Z,89.0358
2023-05-14T13:03:38.265Z,87.7982
2023-05-14T13:04:38.659Z,86.6753
2023-05-14T13:05:41.422Z,86.8565
2023-05-14T13:09:44.265Z,87.0992
2023-05-14T13:10:44.421Z,86.7427
2023-05-14T13:11:44.563Z,86.0855
2023-05-14T13:12:44.692Z,87.0642
2023-05-14T13:13:44.834Z,86.4837
2023-05-14T13:14:44.982Z,83.6821
2023-05-14T13:15:45.182Z,84.1010
2023-05-14T13:16:45.408Z,84.8949
2023-05-14T13:17:45.682Z,83.3111
2023-05-14T13:18:45.846Z,84.1931
2023-05-14T13:19:45.968Z,84.2895
2023-05-14T13:20:46.127Z,83.5182
2023-05-14T13:21:46.272Z,82.7820
2023-05-14T13:22:46.392Z,84.0817
2023-05-14T13:23:46.532Z,83.2180
2023-05-14T13:24:46.887Z,83.2710
2023-05-14T13:25:49.671Z,82.9009
2023-05-14T13:26:47.351Z,82.3536
2023-05-14T13:27:47.503Z,82.5910
2023-05-14T13:28:47.703Z,81.4238
2023-05-14T13:30:49.049Z,82.7409
2023-05-14T13:31:49.181Z,82.2898
2023-05-14T13:33:50.168Z,81.8831
2023-05-14T13:34:50.338Z,80.2926
2023-05-14T13:35:51.288Z,80.7598
2023-05-14T13:36:52.471Z,81.8197
2023-05-14T13:37:53.973Z,80.9524
2023-05-14T13:38:55.594Z,80.7607
2023-05-14T13:39:56.012Z,79.9611
2023-05-14T13:40:56.389Z,81.0622
2023-05-14T13:41:56.598Z,81.0450
2023-05-14T13:42:57.525Z,80.2162
2023-05-14T13:43:58.308Z,78.6932
2023-05-14T13:44:58.477Z,78.3950
2023-05-14T13:45:58.727Z,76.8197
2023-05-14T13:46:58.916Z,77.9719
2023-05-14T13:47:59.115Z,77.4633
2023-05-14T13:48:59.323Z,77.7177
2023-05-14T13:51:00.188Z,76.1954
2023-05-14T13:52:00.359Z,78.2663
2023-05-14T13:53:01.398Z,80.0527
2023-05-14T13:54:02.223Z,81.4777
2023-05-14T13:55:02.385Z,81.0683
2023-05-14T13:56:03.234Z,80.5850
2023-05-14T13:57:03.470Z,78.8447
2023-05-14T13:58:04.070Z,77.9035
2023-05-14T13:59:04.845Z,77.0575
2023-05-14T14:00:05.751Z,74.8148